SBMQ/MCP METAR and TAF weather

Enter ICAO airport designator
Station Type Date Time Source
SBMQ METAR 2019/12/14 17:00 UTC NOAA

SBMQ 141700Z 02004KT 9999 -TSRA SCT016 FEW040CB OVC080 27/27 Q1010


Station Type Date Time Source
SBMQ Decoded METAR 2019/12/14 17:00 UTC NOAA

Macapa, Brazil (SBMQ) 00-02N 050-03W
Dec 14, 2019 - 12:00 PM EST / 2019.12.14 1700 UTC
Wind: from the NNE (020 degrees) at 5 MPH (4 KT):0
Visibility: greater than 7 mile(s):0
Sky conditions: overcast
Weather: light rain with thunder; Cumulonimbus clouds observed
Temperature: 80 F (27 C)
Dew Point: 80 F (27 C)
Relative Humidity: 100%
Pressure (altimeter): 29.83 in. Hg (1010 hPa)
ob: SBMQ 141700Z 02004KT 9999 -TSRA SCT016 FEW040CB OVC080 27/27 Q1010
cycle: 17

Station Type Date Time Source
SBMQ TAF 2019/12/14 18:48 UTC NOAA

TAF SBMQ 141528Z 1418/1518 06015KT 9999 BKN020 FEW025TCU TX33/1418Z TN25/1509Z
BECMG 1422/1424 04005KT SCT017
BECMG 1503/1506 34005KT
BECMG 1510/1512 04010KT
BECMG 1515/1517 BKN020 FEW025TCU
RMK PHI

Example: see airport list